sensor_id;sensor_type;location;lat;lon;timestamp;P1;durP1;ratioP1;P2;durP2;ratioP2
75639;SDS011;64233;51.486;6.332;2022-10-31T00:00:48;15.23;;;8.25;;
75639;SDS011;64233;51.486;6.332;2022-10-31T00:03:14;16.08;;;8.48;;
75639;SDS011;64233;51.486;6.332;2022-10-31T00:05:46;15.00;;;7.82;;
75639;SDS011;64233;51.486;6.332;2022-10-31T00:08:14;13.68;;;8.95;;
75639;SDS011;64233;51.486;6.332;2022-10-31T00:10:39;17.23;;;8.45;;
75639;SDS011;64233;51.486;6.332;2022-10-31T00:13:06;12.80;;;7.68;;
75639;SDS011;64233;51.486;6.332;2022-10-31T00:15:33;17.20;;;8.15;;
75639;SDS011;64233;51.486;6.332;2022-10-31T00:17:59;14.05;;;7.90;;
75639;SDS011;64233;51.486;6.332;2022-10-31T00:20:24;11.05;;;7.35;;
75639;SDS011;64233;51.486;6.332;2022-10-31T00:22:50;11.77;;;7.53;;
75639;SDS011;64233;51.486;6.332;2022-10-31T00:25:15;17.38;;;8.45;;
75639;SDS011;64233;51.486;6.332;2022-10-31T00:27:40;14.57;;;7.82;;
75639;SDS011;64233;51.486;6.332;2022-10-31T00:30:06;15.90;;;7.82;;
75639;SDS011;64233;51.486;6.332;2022-10-31T00:32:31;13.13;;;7.88;;
75639;SDS011;64233;51.486;6.332;2022-10-31T00:34:57;15.30;;;8.27;;
75639;SDS011;64233;51.486;6.332;2022-10-31T00:37:22;12.45;;;7.93;;
75639;SDS011;64233;51.486;6.332;2022-10-31T00:39:47;17.25;;;9.15;;
75639;SDS011;64233;51.486;6.332;2022-10-31T00:42:14;15.88;;;7.72;;
75639;SDS011;64233;51.486;6.332;2022-10-31T00:44:40;13.05;;;8.13;;
75639;SDS011;64233;51.486;6.332;2022-10-31T00:47:05;14.02;;;8.63;;
75639;SDS011;64233;51.486;6.332;2022-10-31T00:49:30;14.75;;;9.00;;
75639;SDS011;64233;51.486;6.332;2022-10-31T00:51:55;12.48;;;7.78;;
75639;SDS011;64233;51.486;6.332;2022-10-31T00:54:21;16.50;;;8.25;;
75639;SDS011;64233;51.486;6.332;2022-10-31T00:56:46;12.23;;;7.20;;
75639;SDS011;64233;51.486;6.332;2022-10-31T00:59:11;12.88;;;8.23;;
75639;SDS011;64233;51.486;6.332;2022-10-31T01:01:36;15.57;;;8.00;;
75639;SDS011;64233;51.486;6.332;2022-10-31T01:04:02;19.52;;;9.07;;
75639;SDS011;64233;51.486;6.332;2022-10-31T01:06:27;13.07;;;7.97;;
75639;SDS011;64233;51.486;6.332;2022-10-31T01:08:52;19.65;;;8.32;;
75639;SDS011;64233;51.486;6.332;2022-10-31T01:11:19;15.80;;;8.88;;
75639;SDS011;64233;51.486;6.332;2022-10-31T01:13:46;14.88;;;7.68;;
75639;SDS011;64233;51.486;6.332;2022-10-31T01:16:13;14.68;;;8.15;;
75639;SDS011;64233;51.486;6.332;2022-10-31T01:18:40;23.38;;;9.38;;
75639;SDS011;64233;51.486;6.332;2022-10-31T01:21:10;17.90;;;9.30;;
75639;SDS011;64233;51.486;6.332;2022-10-31T01:23:37;17.63;;;8.38;;
75639;SDS011;64233;51.486;6.332;2022-10-31T01:26:04;18.63;;;9.65;;
75639;SDS011;64233;51.486;6.332;2022-10-31T01:28:38;23.67;;;8.88;;
75639;SDS011;64233;51.486;6.332;2022-10-31T01:31:08;23.25;;;8.98;;
75639;SDS011;64233;51.486;6.332;2022-10-31T01:33:34;19.85;;;9.43;;
75639;SDS011;64233;51.486;6.332;2022-10-31T01:36:01;15.15;;;8.93;;
75639;SDS011;64233;51.486;6.332;2022-10-31T01:38:35;17.13;;;7.97;;
75639;SDS011;64233;51.486;6.332;2022-10-31T01:41:00;15.57;;;8.25;;
75639;SDS011;64233;51.486;6.332;2022-10-31T01:43:41;17.98;;;9.63;;
75639;SDS011;64233;51.486;6.332;2022-10-31T01:46:21;18.05;;;9.25;;
75639;SDS011;64233;51.486;6.332;2022-10-31T01:48:49;15.65;;;8.65;;
75639;SDS011;64233;51.486;6.332;2022-10-31T01:51:17;15.45;;;8.70;;
75639;SDS011;64233;51.486;6.332;2022-10-31T01:53:44;14.18;;;8.75;;
75639;SDS011;64233;51.486;6.332;2022-10-31T01:56:11;13.23;;;8.00;;
75639;SDS011;64233;51.486;6.332;2022-10-31T01:58:39;13.45;;;8.20;;
75639;SDS011;64233;51.486;6.332;2022-10-31T02:01:05;14.98;;;7.13;;
75639;SDS011;64233;51.486;6.332;2022-10-31T02:03:30;18.35;;;9.43;;
75639;SDS011;64233;51.486;6.332;2022-10-31T02:05:56;13.10;;;8.07;;
75639;SDS011;64233;51.486;6.332;2022-10-31T02:08:23;11.57;;;8.20;;
75639;SDS011;64233;51.486;6.332;2022-10-31T02:10:52;12.60;;;8.35;;
75639;SDS011;64233;51.486;6.332;2022-10-31T02:13:18;16.30;;;8.35;;
75639;SDS011;64233;51.486;6.332;2022-10-31T02:15:45;15.00;;;9.52;;
75639;SDS011;64233;51.486;6.332;2022-10-31T02:18:13;16.95;;;8.27;;
75639;SDS011;64233;51.486;6.332;2022-10-31T02:20:42;17.80;;;8.80;;
75639;SDS011;64233;51.486;6.332;2022-10-31T02:32:05;14.93;;;8.30;;
75639;SDS011;64233;51.486;6.332;2022-10-31T02:34:38;12.43;;;8.55;;
75639;SDS011;64233;51.486;6.332;2022-10-31T02:37:27;15.82;;;8.43;;
75639;SDS011;64233;51.486;6.332;2022-10-31T02:40:04;18.67;;;8.40;;
75639;SDS011;64233;51.486;6.332;2022-10-31T02:45:29;15.10;;;8.85;;
75639;SDS011;64233;51.486;6.332;2022-10-31T02:48:02;14.07;;;8.73;;
75639;SDS011;64233;51.486;6.332;2022-10-31T02:50:33;16.85;;;8.25;;
75639;SDS011;64233;51.486;6.332;2022-10-31T02:53:02;15.70;;;8.57;;
75639;SDS011;64233;51.486;6.332;2022-10-31T02:57:56;17.87;;;8.97;;
75639;SDS011;64233;51.486;6.332;2022-10-31T03:00:25;20.55;;;9.23;;
75639;SDS011;64233;51.486;6.332;2022-10-31T03:11:10;20.65;;;9.55;;
75639;SDS011;64233;51.486;6.332;2022-10-31T03:18:43;14.45;;;9.07;;
75639;SDS011;64233;51.486;6.332;2022-10-31T03:21:26;13.82;;;9.10;;
75639;SDS011;64233;51.486;6.332;2022-10-31T03:24:04;14.63;;;7.93;;
75639;SDS011;64233;51.486;6.332;2022-10-31T03:26:31;16.42;;;8.32;;
75639;SDS011;64233;51.486;6.332;2022-10-31T03:29:03;17.23;;;9.68;;
75639;SDS011;64233;51.486;6.332;2022-10-31T03:31:42;14.82;;;7.57;;
75639;SDS011;64233;51.486;6.332;2022-10-31T03:34:11;13.65;;;7.55;;
75639;SDS011;64233;51.486;6.332;2022-10-31T03:36:38;14.50;;;8.63;;
75639;SDS011;64233;51.486;6.332;2022-10-31T03:39:05;14.93;;;8.52;;
75639;SDS011;64233;51.486;6.332;2022-10-31T03:41:38;16.40;;;8.38;;
75639;SDS011;64233;51.486;6.332;2022-10-31T03:44:08;18.65;;;9.45;;
75639;SDS011;64233;51.486;6.332;2022-10-31T03:46:37;19.23;;;9.90;;
75639;SDS011;64233;51.486;6.332;2022-10-31T03:49:03;16.63;;;9.05;;
75639;SDS011;64233;51.486;6.332;2022-10-31T03:51:34;13.95;;;8.15;;
75639;SDS011;64233;51.486;6.332;2022-10-31T03:54:09;13.00;;;7.55;;
75639;SDS011;64233;51.486;6.332;2022-10-31T03:56:43;14.75;;;8.65;;
75639;SDS011;64233;51.486;6.332;2022-10-31T03:59:31;14.45;;;7.05;;
75639;SDS011;64233;51.486;6.332;2022-10-31T04:02:00;17.60;;;9.23;;
75639;SDS011;64233;51.486;6.332;2022-10-31T04:04:30;12.30;;;7.97;;
75639;SDS011;64233;51.486;6.332;2022-10-31T04:06:57;16.40;;;7.45;;
75639;SDS011;64233;51.486;6.332;2022-10-31T04:09:25;14.70;;;8.07;;
75639;SDS011;64233;51.486;6.332;2022-10-31T04:11:53;16.42;;;8.52;;
75639;SDS011;64233;51.486;6.332;2022-10-31T04:14:22;12.40;;;8.05;;
75639;SDS011;64233;51.486;6.332;2022-10-31T04:16:50;13.48;;;7.65;;
75639;SDS011;64233;51.486;6.332;2022-10-31T04:19:16;15.20;;;8.95;;
75639;SDS011;64233;51.486;6.332;2022-10-31T04:21:41;19.48;;;9.02;;
75639;SDS011;64233;51.486;6.332;2022-10-31T04:24:09;14.07;;;8.27;;
75639;SDS011;64233;51.486;6.332;2022-10-31T04:26:35;19.40;;;8.82;;
75639;SDS011;64233;51.486;6.332;2022-10-31T04:29:01;14.35;;;8.00;;
75639;SDS011;64233;51.486;6.332;2022-10-31T04:31:26;15.38;;;8.00;;
75639;SDS011;64233;51.486;6.332;2022-10-31T04:33:52;13.68;;;7.82;;
75639;SDS011;64233;51.486;6.332;2022-10-31T04:36:17;14.73;;;8.30;;
75639;SDS011;64233;51.486;6.332;2022-10-31T04:38:42;15.95;;;8.00;;
75639;SDS011;64233;51.486;6.332;2022-10-31T04:41:08;16.67;;;8.23;;
75639;SDS011;64233;51.486;6.332;2022-10-31T04:43:33;21.63;;;8.93;;
75639;SDS011;64233;51.486;6.332;2022-10-31T04:45:58;15.88;;;8.30;;
75639;SDS011;64233;51.486;6.332;2022-10-31T04:48:24;14.00;;;8.20;;
75639;SDS011;64233;51.486;6.332;2022-10-31T04:50:49;16.63;;;8.95;;
75639;SDS011;64233;51.486;6.332;2022-10-31T04:53:14;13.80;;;7.63;;
75639;SDS011;64233;51.486;6.332;2022-10-31T04:55:40;9.57;;;5.70;;
75639;SDS011;64233;51.486;6.332;2022-10-31T04:58:05;13.20;;;7.65;;
75639;SDS011;64233;51.486;6.332;2022-10-31T05:00:30;13.50;;;6.72;;
75639;SDS011;64233;51.486;6.332;2022-10-31T05:02:56;14.18;;;7.85;;
75639;SDS011;64233;51.486;6.332;2022-10-31T05:05:24;21.15;;;7.47;;
75639;SDS011;64233;51.486;6.332;2022-10-31T05:07:50;11.32;;;7.70;;
75639;SDS011;64233;51.486;6.332;2022-10-31T05:10:17;12.15;;;7.65;;
75639;SDS011;64233;51.486;6.332;2022-10-31T05:12:51;14.05;;;8.07;;
75639;SDS011;64233;51.486;6.332;2022-10-31T05:15:19;14.32;;;7.82;;
75639;SDS011;64233;51.486;6.332;2022-10-31T05:17:45;12.40;;;8.07;;
75639;SDS011;64233;51.486;6.332;2022-10-31T05:20:12;13.75;;;8.23;;
75639;SDS011;64233;51.486;6.332;2022-10-31T05:22:42;11.38;;;7.60;;
75639;SDS011;64233;51.486;6.332;2022-10-31T05:25:11;13.85;;;7.75;;
75639;SDS011;64233;51.486;6.332;2022-10-31T05:27:40;14.98;;;8.48;;
75639;SDS011;64233;51.486;6.332;2022-10-31T05:30:10;13.30;;;7.97;;
75639;SDS011;64233;51.486;6.332;2022-10-31T05:32:37;8.80;;;6.03;;
75639;SDS011;64233;51.486;6.332;2022-10-31T05:35:04;13.35;;;7.15;;
75639;SDS011;64233;51.486;6.332;2022-10-31T05:37:30;12.77;;;6.85;;
75639;SDS011;64233;51.486;6.332;2022-10-31T05:39:55;12.52;;;7.93;;
75639;SDS011;64233;51.486;6.332;2022-10-31T05:42:20;16.13;;;8.50;;
75639;SDS011;64233;51.486;6.332;2022-10-31T05:44:45;12.77;;;7.03;;
75639;SDS011;64233;51.486;6.332;2022-10-31T05:47:11;13.18;;;7.57;;
75639;SDS011;64233;51.486;6.332;2022-10-31T05:49:36;11.75;;;7.28;;
75639;SDS011;64233;51.486;6.332;2022-10-31T05:52:01;14.63;;;7.70;;
75639;SDS011;64233;51.486;6.332;2022-10-31T05:54:26;11.95;;;7.72;;
75639;SDS011;64233;51.486;6.332;2022-10-31T05:56:52;16.33;;;8.52;;
75639;SDS011;64233;51.486;6.332;2022-10-31T05:59:17;14.15;;;7.53;;
75639;SDS011;64233;51.486;6.332;2022-10-31T06:01:42;11.75;;;7.30;;
75639;SDS011;64233;51.486;6.332;2022-10-31T06:04:08;11.45;;;7.30;;
75639;SDS011;64233;51.486;6.332;2022-10-31T06:06:33;14.63;;;7.60;;
75639;SDS011;64233;51.486;6.332;2022-10-31T06:08:58;13.00;;;8.85;;
75639;SDS011;64233;51.486;6.332;2022-10-31T06:11:24;13.02;;;7.80;;
75639;SDS011;64233;51.486;6.332;2022-10-31T06:13:49;13.90;;;8.02;;
75639;SDS011;64233;51.486;6.332;2022-10-31T06:16:14;15.30;;;8.27;;
75639;SDS011;64233;51.486;6.332;2022-10-31T06:18:39;12.80;;;7.65;;
75639;SDS011;64233;51.486;6.332;2022-10-31T06:21:05;12.55;;;8.55;;
75639;SDS011;64233;51.486;6.332;2022-10-31T06:23:30;14.32;;;7.95;;
75639;SDS011;64233;51.486;6.332;2022-10-31T06:25:55;10.68;;;7.05;;
75639;SDS011;64233;51.486;6.332;2022-10-31T06:28:20;15.77;;;7.85;;
75639;SDS011;64233;51.486;6.332;2022-10-31T06:30:46;15.18;;;8.40;;
75639;SDS011;64233;51.486;6.332;2022-10-31T06:33:11;11.38;;;6.78;;
75639;SDS011;64233;51.486;6.332;2022-10-31T06:35:36;7.95;;;5.82;;
75639;SDS011;64233;51.486;6.332;2022-10-31T06:38:01;10.20;;;6.70;;
75639;SDS011;64233;51.486;6.332;2022-10-31T06:40:27;14.88;;;7.65;;
75639;SDS011;64233;51.486;6.332;2022-10-31T06:42:55;11.40;;;7.47;;
75639;SDS011;64233;51.486;6.332;2022-10-31T06:45:22;11.25;;;6.72;;
75639;SDS011;64233;51.486;6.332;2022-10-31T06:47:51;13.13;;;7.97;;
75639;SDS011;64233;51.486;6.332;2022-10-31T06:50:18;15.70;;;8.70;;
75639;SDS011;64233;51.486;6.332;2022-10-31T06:52:49;22.52;;;11.25;;
75639;SDS011;64233;51.486;6.332;2022-10-31T06:55:18;17.27;;;8.88;;
75639;SDS011;64233;51.486;6.332;2022-10-31T06:57:49;20.42;;;8.93;;
75639;SDS011;64233;51.486;6.332;2022-10-31T07:00:18;11.90;;;7.70;;
75639;SDS011;64233;51.486;6.332;2022-10-31T07:02:44;11.35;;;7.15;;
75639;SDS011;64233;51.486;6.332;2022-10-31T07:05:24;9.30;;;7.38;;
75639;SDS011;64233;51.486;6.332;2022-10-31T07:07:58;11.60;;;7.25;;
75639;SDS011;64233;51.486;6.332;2022-10-31T07:10:26;13.93;;;7.63;;
75639;SDS011;64233;51.486;6.332;2022-10-31T07:12:56;16.38;;;7.82;;
75639;SDS011;64233;51.486;6.332;2022-10-31T07:15:23;10.27;;;7.03;;
75639;SDS011;64233;51.486;6.332;2022-10-31T07:17:49;10.60;;;6.60;;
75639;SDS011;64233;51.486;6.332;2022-10-31T07:20:21;10.68;;;6.95;;
75639;SDS011;64233;51.486;6.332;2022-10-31T07:22:53;10.38;;;6.75;;
75639;SDS011;64233;51.486;6.332;2022-10-31T07:25:25;10.68;;;6.90;;
75639;SDS011;64233;51.486;6.332;2022-10-31T07:27:51;10.90;;;6.68;;
75639;SDS011;64233;51.486;6.332;2022-10-31T07:30:16;13.00;;;8.00;;
75639;SDS011;64233;51.486;6.332;2022-10-31T07:32:44;11.55;;;7.90;;
75639;SDS011;64233;51.486;6.332;2022-10-31T07:35:12;11.45;;;7.82;;
75639;SDS011;64233;51.486;6.332;2022-10-31T07:37:38;11.30;;;7.57;;
75639;SDS011;64233;51.486;6.332;2022-10-31T07:40:04;11.20;;;7.40;;
75639;SDS011;64233;51.486;6.332;2022-10-31T07:42:38;10.90;;;7.85;;
75639;SDS011;64233;51.486;6.332;2022-10-31T07:45:04;14.80;;;8.55;;
75639;SDS011;64233;51.486;6.332;2022-10-31T07:47:41;14.90;;;8.40;;
75639;SDS011;64233;51.486;6.332;2022-10-31T07:50:07;14.88;;;8.68;;
75639;SDS011;64233;51.486;6.332;2022-10-31T07:52:34;12.93;;;7.53;;
75639;SDS011;64233;51.486;6.332;2022-10-31T07:54:59;14.43;;;8.82;;
75639;SDS011;64233;51.486;6.332;2022-10-31T07:57:25;17.83;;;8.38;;
75639;SDS011;64233;51.486;6.332;2022-10-31T07:59:50;12.10;;;7.82;;
75639;SDS011;64233;51.486;6.332;2022-10-31T08:02:15;13.20;;;7.90;;
75639;SDS011;64233;51.486;6.332;2022-10-31T08:04:41;18.30;;;8.90;;
75639;SDS011;64233;51.486;6.332;2022-10-31T08:07:06;13.30;;;9.32;;
75639;SDS011;64233;51.486;6.332;2022-10-31T08:09:38;17.80;;;9.38;;
75639;SDS011;64233;51.486;6.332;2022-10-31T08:12:04;13.90;;;8.45;;
75639;SDS011;64233;51.486;6.332;2022-10-31T08:14:29;20.58;;;9.77;;
75639;SDS011;64233;51.486;6.332;2022-10-31T08:16:55;16.55;;;9.52;;
75639;SDS011;64233;51.486;6.332;2022-10-31T08:19:20;17.80;;;9.40;;
75639;SDS011;64233;51.486;6.332;2022-10-31T08:21:46;18.70;;;9.20;;
75639;SDS011;64233;51.486;6.332;2022-10-31T08:24:11;18.38;;;10.68;;
75639;SDS011;64233;51.486;6.332;2022-10-31T08:26:36;18.33;;;10.15;;
75639;SDS011;64233;51.486;6.332;2022-10-31T08:29:02;19.63;;;10.73;;
75639;SDS011;64233;51.486;6.332;2022-10-31T08:31:34;15.68;;;9.50;;
75639;SDS011;64233;51.486;6.332;2022-10-31T08:34:06;15.05;;;9.60;;
75639;SDS011;64233;51.486;6.332;2022-10-31T08:36:31;15.48;;;9.32;;
75639;SDS011;64233;51.486;6.332;2022-10-31T08:38:57;18.83;;;10.57;;
75639;SDS011;64233;51.486;6.332;2022-10-31T08:41:22;14.15;;;9.90;;
75639;SDS011;64233;51.486;6.332;2022-10-31T08:43:48;22.05;;;11.70;;
75639;SDS011;64233;51.486;6.332;2022-10-31T08:46:13;16.83;;;10.32;;
75639;SDS011;64233;51.486;6.332;2022-10-31T08:48:38;18.23;;;10.13;;
75639;SDS011;64233;51.486;6.332;2022-10-31T08:51:04;15.90;;;9.38;;
75639;SDS011;64233;51.486;6.332;2022-10-31T08:53:29;21.88;;;9.73;;
75639;SDS011;64233;51.486;6.332;2022-10-31T08:55:55;17.80;;;9.43;;
75639;SDS011;64233;51.486;6.332;2022-10-31T08:58:21;21.15;;;10.40;;
75639;SDS011;64233;51.486;6.332;2022-10-31T09:00:48;14.95;;;9.82;;
75639;SDS011;64233;51.486;6.332;2022-10-31T09:03:20;18.75;;;10.40;;
75639;SDS011;64233;51.486;6.332;2022-10-31T09:05:49;19.63;;;10.23;;
75639;SDS011;64233;51.486;6.332;2022-10-31T09:08:16;23.80;;;11.55;;
75639;SDS011;64233;51.486;6.332;2022-10-31T09:10:42;19.88;;;10.95;;
75639;SDS011;64233;51.486;6.332;2022-10-31T09:13:12;16.88;;;10.45;;
75639;SDS011;64233;51.486;6.332;2022-10-31T09:15:43;24.23;;;10.07;;
75639;SDS011;64233;51.486;6.332;2022-10-31T09:18:10;22.42;;;11.07;;
75639;SDS011;64233;51.486;6.332;2022-10-31T09:20:43;21.75;;;9.75;;
75639;SDS011;64233;51.486;6.332;2022-10-31T09:23:16;21.98;;;10.55;;
75639;SDS011;64233;51.486;6.332;2022-10-31T09:25:43;19.75;;;10.00;;
75639;SDS011;64233;51.486;6.332;2022-10-31T09:28:13;22.38;;;10.30;;
75639;SDS011;64233;51.486;6.332;2022-10-31T09:30:40;18.05;;;10.27;;
75639;SDS011;64233;51.486;6.332;2022-10-31T09:33:06;17.00;;;10.43;;
75639;SDS011;64233;51.486;6.332;2022-10-31T09:35:36;22.08;;;11.38;;
75639;SDS011;64233;51.486;6.332;2022-10-31T09:38:04;18.73;;;11.00;;
75639;SDS011;64233;51.486;6.332;2022-10-31T09:57:10;16.47;;;9.03;;
75639;SDS011;64233;51.486;6.332;2022-10-31T09:59:39;20.23;;;9.32;;
75639;SDS011;64233;51.486;6.332;2022-10-31T10:02:13;18.95;;;8.68;;
75639;SDS011;64233;51.486;6.332;2022-10-31T10:04:56;17.23;;;9.90;;
75639;SDS011;64233;51.486;6.332;2022-10-31T10:10:32;19.10;;;8.43;;
75639;SDS011;64233;51.486;6.332;2022-10-31T10:13:54;15.48;;;8.55;;
75639;SDS011;64233;51.486;6.332;2022-10-31T10:30:02;22.88;;;9.88;;
75639;SDS011;64233;51.486;6.332;2022-10-31T10:32:48;22.73;;;9.43;;
75639;SDS011;64233;51.486;6.332;2022-10-31T10:40:42;14.13;;;9.07;;
75639;SDS011;64233;51.486;6.332;2022-10-31T10:45:50;21.95;;;9.57;;
75639;SDS011;64233;51.486;6.332;2022-10-31T10:48:44;21.85;;;9.40;;
75639;SDS011;64233;51.486;6.332;2022-10-31T10:51:21;23.23;;;12.68;;
75639;SDS011;64233;51.486;6.332;2022-10-31T10:59:02;26.52;;;12.82;;
75639;SDS011;64233;51.486;6.332;2022-10-31T11:01:28;23.58;;;11.93;;
75639;SDS011;64233;51.486;6.332;2022-10-31T11:03:54;23.65;;;12.52;;
75639;SDS011;64233;51.486;6.332;2022-10-31T11:06:20;27.42;;;13.02;;
75639;SDS011;64233;51.486;6.332;2022-10-31T11:08:50;25.70;;;12.93;;
75639;SDS011;64233;51.486;6.332;2022-10-31T11:14:02;28.20;;;11.32;;
75639;SDS011;64233;51.486;6.332;2022-10-31T11:16:31;24.95;;;12.63;;
75639;SDS011;64233;51.486;6.332;2022-10-31T11:21:37;25.17;;;10.93;;
75639;SDS011;64233;51.486;6.332;2022-10-31T11:24:03;22.08;;;12.40;;
75639;SDS011;64233;51.486;6.332;2022-10-31T11:26:37;21.35;;;10.70;;
75639;SDS011;64233;51.486;6.332;2022-10-31T11:29:04;24.85;;;12.68;;
75639;SDS011;64233;51.486;6.332;2022-10-31T11:31:35;29.70;;;12.68;;
75639;SDS011;64233;51.486;6.332;2022-10-31T11:34:01;22.85;;;11.88;;
75639;SDS011;64233;51.486;6.332;2022-10-31T11:36:32;24.30;;;11.35;;
75639;SDS011;64233;51.486;6.332;2022-10-31T11:39:01;27.67;;;13.40;;
75639;SDS011;64233;51.486;6.332;2022-10-31T11:41:33;25.05;;;12.45;;
75639;SDS011;64233;51.486;6.332;2022-10-31T11:44:04;25.13;;;13.07;;
75639;SDS011;64233;51.486;6.332;2022-10-31T11:46:44;32.88;;;14.40;;
75639;SDS011;64233;51.486;6.332;2022-10-31T11:49:17;27.52;;;11.90;;
75639;SDS011;64233;51.486;6.332;2022-10-31T11:51:49;26.63;;;13.15;;
75639;SDS011;64233;51.486;6.332;2022-10-31T11:54:22;26.45;;;13.23;;
75639;SDS011;64233;51.486;6.332;2022-10-31T11:56:51;24.02;;;11.65;;
75639;SDS011;64233;51.486;6.332;2022-10-31T11:59:29;24.45;;;12.23;;
75639;SDS011;64233;51.486;6.332;2022-10-31T12:01:57;25.45;;;13.00;;
75639;SDS011;64233;51.486;6.332;2022-10-31T12:04:32;25.92;;;12.63;;
75639;SDS011;64233;51.486;6.332;2022-10-31T12:07:05;32.00;;;14.55;;
75639;SDS011;64233;51.486;6.332;2022-10-31T12:09:33;26.35;;;11.95;;
75639;SDS011;64233;51.486;6.332;2022-10-31T12:15:23;24.60;;;12.23;;
75639;SDS011;64233;51.486;6.332;2022-10-31T12:26:20;29.52;;;11.32;;
75639;SDS011;64233;51.486;6.332;2022-10-31T12:31:42;23.42;;;11.02;;
75639;SDS011;64233;51.486;6.332;2022-10-31T12:50:28;22.27;;;9.80;;
75639;SDS011;64233;51.486;6.332;2022-10-31T12:58:54;19.40;;;9.93;;
75639;SDS011;64233;51.486;6.332;2022-10-31T13:01:27;17.48;;;8.32;;
75639;SDS011;64233;51.486;6.332;2022-10-31T13:04:04;20.20;;;8.93;;
75639;SDS011;64233;51.486;6.332;2022-10-31T13:06:40;17.45;;;7.75;;
75639;SDS011;64233;51.486;6.332;2022-10-31T13:09:09;19.05;;;8.60;;
75639;SDS011;64233;51.486;6.332;2022-10-31T13:12:01;21.77;;;7.88;;
75639;SDS011;64233;51.486;6.332;2022-10-31T13:14:32;18.20;;;7.57;;
75639;SDS011;64233;51.486;6.332;2022-10-31T13:17:02;18.10;;;8.07;;
75639;SDS011;64233;51.486;6.332;2022-10-31T13:19:30;20.73;;;8.52;;
75639;SDS011;64233;51.486;6.332;2022-10-31T13:22:03;14.75;;;8.02;;
75639;SDS011;64233;51.486;6.332;2022-10-31T13:24:40;24.88;;;8.95;;
75639;SDS011;64233;51.486;6.332;2022-10-31T13:27:11;22.83;;;8.27;;
75639;SDS011;64233;51.486;6.332;2022-10-31T13:29:44;13.98;;;8.05;;
75639;SDS011;64233;51.486;6.332;2022-10-31T13:32:18;17.58;;;7.95;;
75639;SDS011;64233;51.486;6.332;2022-10-31T13:34:47;14.75;;;7.97;;
75639;SDS011;64233;51.486;6.332;2022-10-31T13:40:01;14.65;;;7.93;;
75639;SDS011;64233;51.486;6.332;2022-10-31T13:42:40;14.73;;;7.80;;
75639;SDS011;64233;51.486;6.332;2022-10-31T13:45:14;19.23;;;8.05;;
75639;SDS011;64233;51.486;6.332;2022-10-31T13:47:42;12.73;;;7.93;;
75639;SDS011;64233;51.486;6.332;2022-10-31T13:50:24;22.25;;;8.00;;
75639;SDS011;64233;51.486;6.332;2022-10-31T13:53:13;16.27;;;7.32;;
75639;SDS011;64233;51.486;6.332;2022-10-31T13:55:42;21.75;;;7.55;;
75639;SDS011;64233;51.486;6.332;2022-10-31T13:58:22;17.58;;;6.95;;
75639;SDS011;64233;51.486;6.332;2022-10-31T14:03:40;16.77;;;6.25;;
75639;SDS011;64233;51.486;6.332;2022-10-31T14:06:07;15.85;;;7.32;;
75639;SDS011;64233;51.486;6.332;2022-10-31T14:08:35;14.52;;;7.38;;
75639;SDS011;64233;51.486;6.332;2022-10-31T14:11:05;15.00;;;6.43;;
75639;SDS011;64233;51.486;6.332;2022-10-31T14:13:34;14.90;;;6.30;;
75639;SDS011;64233;51.486;6.332;2022-10-31T14:16:04;14.52;;;6.85;;
75639;SDS011;64233;51.486;6.332;2022-10-31T14:18:57;10.52;;;6.30;;
75639;SDS011;64233;51.486;6.332;2022-10-31T14:21:43;14.80;;;5.90;;
75639;SDS011;64233;51.486;6.332;2022-10-31T14:24:14;14.00;;;6.43;;
75639;SDS011;64233;51.486;6.332;2022-10-31T14:26:59;16.45;;;5.88;;
75639;SDS011;64233;51.486;6.332;2022-10-31T14:29:47;14.00;;;6.32;;
75639;SDS011;64233;51.486;6.332;2022-10-31T14:37:10;9.93;;;5.28;;
75639;SDS011;64233;51.486;6.332;2022-10-31T14:45:20;8.70;;;5.53;;
75639;SDS011;64233;51.486;6.332;2022-10-31T14:48:13;8.63;;;5.20;;
75639;SDS011;64233;51.486;6.332;2022-10-31T14:50:52;12.27;;;5.75;;
75639;SDS011;64233;51.486;6.332;2022-10-31T14:53:22;10.30;;;6.18;;
75639;SDS011;64233;51.486;6.332;2022-10-31T14:55:52;11.57;;;4.82;;
75639;SDS011;64233;51.486;6.332;2022-10-31T14:58:22;9.57;;;4.75;;
75639;SDS011;64233;51.486;6.332;2022-10-31T15:00:54;9.95;;;5.43;;
75639;SDS011;64233;51.486;6.332;2022-10-31T15:05:51;10.75;;;4.90;;
75639;SDS011;64233;51.486;6.332;2022-10-31T15:11:26;10.70;;;4.32;;
75639;SDS011;64233;51.486;6.332;2022-10-31T15:13:53;12.25;;;5.35;;
75639;SDS011;64233;51.486;6.332;2022-10-31T15:16:32;12.07;;;5.65;;
75639;SDS011;64233;51.486;6.332;2022-10-31T15:19:10;10.45;;;4.45;;
75639;SDS011;64233;51.486;6.332;2022-10-31T15:21:41;13.68;;;5.57;;
75639;SDS011;64233;51.486;6.332;2022-10-31T15:24:10;6.82;;;4.22;;
75639;SDS011;64233;51.486;6.332;2022-10-31T15:26:38;14.60;;;5.25;;
75639;SDS011;64233;51.486;6.332;2022-10-31T15:29:11;7.38;;;4.00;;
75639;SDS011;64233;51.486;6.332;2022-10-31T15:31:38;12.48;;;5.03;;
75639;SDS011;64233;51.486;6.332;2022-10-31T15:34:05;11.25;;;3.85;;
75639;SDS011;64233;51.486;6.332;2022-10-31T15:36:39;9.40;;;4.47;;
75639;SDS011;64233;51.486;6.332;2022-10-31T15:39:05;14.52;;;4.70;;
75639;SDS011;64233;51.486;6.332;2022-10-31T15:44:15;7.75;;;4.30;;
75639;SDS011;64233;51.486;6.332;2022-10-31T15:46:59;11.90;;;4.53;;
75639;SDS011;64233;51.486;6.332;2022-10-31T15:49:36;5.22;;;3.22;;
75639;SDS011;64233;51.486;6.332;2022-10-31T15:52:07;11.07;;;3.90;;
75639;SDS011;64233;51.486;6.332;2022-10-31T15:54:42;6.93;;;3.25;;
75639;SDS011;64233;51.486;6.332;2022-10-31T15:57:11;6.95;;;3.65;;
75639;SDS011;64233;51.486;6.332;2022-10-31T15:59:37;6.57;;;3.55;;
75639;SDS011;64233;51.486;6.332;2022-10-31T16:02:09;8.60;;;3.65;;
75639;SDS011;64233;51.486;6.332;2022-10-31T16:04:37;7.97;;;3.92;;
75639;SDS011;64233;51.486;6.332;2022-10-31T16:07:14;9.38;;;3.63;;
75639;SDS011;64233;51.486;6.332;2022-10-31T16:10:00;7.88;;;3.40;;
75639;SDS011;64233;51.486;6.332;2022-10-31T16:12:33;7.90;;;3.88;;
75639;SDS011;64233;51.486;6.332;2022-10-31T16:15:01;9.57;;;3.58;;
75639;SDS011;64233;51.486;6.332;2022-10-31T16:17:28;11.10;;;3.30;;
75639;SDS011;64233;51.486;6.332;2022-10-31T16:19:56;8.32;;;3.67;;
75639;SDS011;64233;51.486;6.332;2022-10-31T16:22:25;5.50;;;3.65;;
75639;SDS011;64233;51.486;6.332;2022-10-31T16:25:03;10.90;;;3.42;;
75639;SDS011;64233;51.486;6.332;2022-10-31T16:27:37;8.43;;;3.25;;
75639;SDS011;64233;51.486;6.332;2022-10-31T16:33:04;9.93;;;3.22;;
75639;SDS011;64233;51.486;6.332;2022-10-31T16:35:45;6.97;;;3.72;;
75639;SDS011;64233;51.486;6.332;2022-10-31T16:38:10;7.50;;;2.97;;
75639;SDS011;64233;51.486;6.332;2022-10-31T16:40:37;7.57;;;3.38;;
75639;SDS011;64233;51.486;6.332;2022-10-31T16:43:03;6.65;;;3.40;;
75639;SDS011;64233;51.486;6.332;2022-10-31T16:45:31;10.57;;;3.72;;
75639;SDS011;64233;51.486;6.332;2022-10-31T16:48:02;6.80;;;3.22;;
75639;SDS011;64233;51.486;6.332;2022-10-31T16:50:29;8.38;;;3.80;;
75639;SDS011;64233;51.486;6.332;2022-10-31T16:52:54;18.98;;;3.97;;
75639;SDS011;64233;51.486;6.332;2022-10-31T16:55:20;9.35;;;4.05;;
75639;SDS011;64233;51.486;6.332;2022-10-31T16:57:50;6.15;;;3.28;;
75639;SDS011;64233;51.486;6.332;2022-10-31T17:00:24;7.35;;;3.30;;
75639;SDS011;64233;51.486;6.332;2022-10-31T17:02:51;8.38;;;3.10;;
75639;SDS011;64233;51.486;6.332;2022-10-31T17:05:19;6.10;;;3.20;;
75639;SDS011;64233;51.486;6.332;2022-10-31T17:07:45;8.00;;;3.78;;
75639;SDS011;64233;51.486;6.332;2022-10-31T17:10:18;5.22;;;3.10;;